Triumph — WDC9555 — position and weather

sailwx.info

Track history (hours):
 
Tides and Currents Weather Stations Pressure Air Temp Water Temp Dewpoint Dewpoint Depression Visibility Wind Speed Wind Dir Waves Ship Positions

Triumph

Owner: WESTERN TOWBOAT CO, SEATTLE, WA. More information available from US FCC via Universal Licensing System and Coast Guard Vessel Documentation Center.

Last reported at 2016-Feb-06 20:34 UTC. Time now 2016-Feb-06 20:45 UTC.
Position N 47°35' W 122°23'.

Length 24 m; draft 3 m.

Type: Tow > 200 m length. MMSI: 367103880.

Date/timePositionNaut miles runAvg speedWind from/ knotsBaromVisibWave heightAir tempDewpointWater temp
2016-Feb-06 20:34N 47°35' W 122°23'5 4.6
2016-Feb-06 19:34N 47°40' W 122°24'1 1.4
2016-Feb-06 18:33N 47°39' W 122°22'0 0.0
2016-Feb-06 17:34N 47°39' W 122°22'0 0.0
2016-Feb-06 16:33N 47°39' W 122°22'0 0.0
2016-Feb-06 15:33N 47°39' W 122°22'0 0.0
2016-Feb-06 14:34N 47°39' W 122°22'0 0.0
2016-Feb-06 13:34N 47°39' W 122°22'0 0.0
2016-Feb-06 12:34N 47°39' W 122°22'0 0.0
2016-Feb-06 11:34N 47°39' W 122°22'0 0.0
2016-Feb-06 10:34N 47°39' W 122°22'0 0.0
2016-Feb-06 09:33N 47°39' W 122°22'0 0.0
2016-Feb-06 08:33N 47°39' W 122°22'0 0.0
2016-Feb-06 07:34N 47°39' W 122°22'0 0.0
2016-Feb-06 06:34N 47°39' W 122°22'0 0.0
2016-Feb-06 05:33N 47°39' W 122°22'0 0.0
2016-Feb-06 04:33N 47°39' W 122°22'0 0.0
2016-Feb-06 03:33N 47°39' W 122°22'0 0.0
2016-Feb-06 02:34N 47°39' W 122°22'0 0.0
2016-Feb-06 01:33N 47°39' W 122°22'0 0.0
2016-Feb-06 00:34N 47°39' W 122°22'0 0.0
2016-Feb-05 23:34N 47°39' W 122°22'0 0.0
2016-Feb-05 22:34N 47°39' W 122°22'0 0.0
2016-Feb-05 21:34N 47°39' W 122°22'0 0.0
2016-Feb-05 20:34N 47°39' W 122°22'0 0.0
2016-Feb-05 19:33N 47°39' W 122°22'0 0.0
2016-Feb-05 18:34N 47°39' W 122°22'0 0.0
2016-Feb-05 17:34N 47°39' W 122°22'0 0.0
2016-Feb-05 16:34N 47°39' W 122°22'0 0.0
2016-Feb-05 15:34N 47°39' W 122°22'0 0.0
2016-Feb-05 14:34N 47°39' W 122°22'0 0.0
2016-Feb-05 13:33N 47°39' W 122°22'0 0.0
2016-Feb-05 12:34N 47°39' W 122°22'0 0.0
2016-Feb-05 11:34N 47°39' W 122°22'0 0.0
2016-Feb-05 10:33N 47°39' W 122°22'0 0.0
2016-Feb-05 09:34N 47°39' W 122°22'0 0.0
2016-Feb-05 08:34N 47°39' W 122°22'0 0.0
2016-Feb-05 07:33N 47°39' W 122°22'0 0.0
2016-Feb-05 06:34N 47°39' W 122°22'0 0.0
2016-Feb-05 05:34N 47°39' W 122°22'0 0.0
2016-Feb-05 04:33N 47°39' W 122°22'0 0.0
2016-Feb-05 03:34N 47°39' W 122°22'0 0.0
2016-Feb-05 02:33N 47°39' W 122°22'0 0.0
2016-Feb-05 01:34N 47°39' W 122°22'0 0.0
2016-Feb-05 00:34N 47°39' W 122°22'0 0.0
2016-Feb-04 23:33N 47°39' W 122°22'0 0.0
2016-Feb-04 22:33N 47°39' W 122°22'0 0.0
2016-Feb-04 21:33N 47°39' W 122°22'0 0.0
2016-Feb-04 20:33N 47°39' W 122°22'0 0.0
2016-Feb-04 19:34N 47°39' W 122°22'0 0.0
2016-Feb-04 18:34N 47°39' W 122°22'0 0.0
2016-Feb-04 17:34N 47°39' W 122°22'0 0.0
2016-Feb-04 16:34N 47°39' W 122°22'0 0.1
2016-Feb-04 15:33N 47°39' W 122°22'0 0.0
2016-Feb-04 14:33N 47°39' W 122°22'0 0.0
2016-Feb-04 13:33N 47°39' W 122°22'0 0.0
2016-Feb-04 12:34N 47°39' W 122°22'0 0.0
2016-Feb-04 11:33N 47°39' W 122°22'0 0.0
2016-Feb-04 10:33N 47°39' W 122°22'0 0.0
2016-Feb-04 09:33N 47°39' W 122°22'0 0.0
2016-Feb-04 08:34N 47°39' W 122°22'0 0.0
2016-Feb-04 07:34N 47°39' W 122°22'0 0.0
2016-Feb-04 06:33N 47°39' W 122°22'0 0.0
2016-Feb-04 05:33N 47°39' W 122°22'0 0.0
2016-Feb-04 04:34N 47°39' W 122°22'0 0.0
2016-Feb-04 03:34N 47°39' W 122°22'0 0.0
2016-Feb-04 02:33N 47°39' W 122°22'0 0.0
2016-Feb-04 01:34N 47°39' W 122°22'0 0.0
2016-Feb-04 00:34N 47°39' W 122°22'0 0.0
2016-Feb-03 23:33N 47°39' W 122°22'0 0.0
2016-Feb-03 22:33N 47°39' W 122°22'0 0.0
2016-Feb-03 21:34N 47°39' W 122°22'0 0.1
2016-Feb-03 20:33N 47°39' W 122°22'0 0.0
2016-Feb-03 19:34N 47°39' W 122°22'0 0.0
2016-Feb-03 12:03N 47°39' W 122°22'1 2.9
2016-Feb-03 11:34N 47°40' W 122°24'7 7.0
2016-Feb-03 10:33N 47°33' W 122°21'2 2.5
2016-Feb-03 09:33N 47°36' W 122°22'6 6.4
2016-Feb-03 08:33N 47°40' W 122°28'7 7.3
2016-Feb-03 07:33N 47°48' W 122°28'8 7.6
2016-Feb-03 06:33N 47°55' W 122°30'8 7.7
2016-Feb-03 05:33N 48°01' W 122°38'17 7.2
2016-Feb-03 03:14N 48°16' W 122°48'5 7.4
2016-Feb-03 02:32N 48°21' W 122°46'8 8.4
2016-Feb-03 01:33N 48°29' W 122°45'9 9.2
2016-Feb-03 00:33N 48°38' W 122°44'8 7.6
2016-Feb-02 23:33N 48°45' W 122°48'8 7.6
2016-Feb-02 22:33N 48°50' W 122°58'7 7.5
2016-Feb-02 21:33N 48°54' W 123°07'7 7.4
2016-Feb-02 20:33N 48°59' W 123°16'7 6.6
2016-Feb-02 19:33N 49°05' W 123°20'5 5.3
2016-Feb-02 18:33N 49°08' W 123°13'5 5.5
2016-Feb-02 17:33N 49°07' W 123°04'2 2.2
2016-Feb-02 16:33N 49°09' W 123°02'0 0.0
2016-Feb-02 15:33N 49°09' W 123°02'0 0.0
2016-Feb-02 14:33N 49°09' W 123°02'0 0.0
2016-Feb-02 13:33N 49°09' W 123°02'0 0.0
2016-Feb-02 12:33N 49°09' W 123°02'0 0.0
2016-Feb-02 11:33N 49°09' W 123°02'0 0.0
2016-Feb-02 10:33N 49°09' W 123°02'0 0.0
2016-Feb-02 09:33N 49°09' W 123°02'0 0.0
2016-Feb-02 08:33N 49°09' W 123°02'0 0.0
2016-Feb-02 07:33N 49°09' W 123°02'0 0.0
2016-Feb-02 06:33N 49°09' W 123°02'0 0.0
2016-Feb-02 05:33N 49°09' W 123°02'0 0.0
2016-Feb-02 04:33N 49°09' W 123°02'0 0.0
2016-Feb-02 03:33N 49°09' W 123°02'0 0.0
2016-Feb-02 02:33N 49°09' W 123°02'0 0.0
2016-Feb-02 01:33N 49°09' W 123°02'2 1.8
2016-Feb-02 00:33N 49°08' W 123°04'4 4.4
2016-Feb-01 23:33N 49°07' W 123°10'5 5.0
2016-Feb-01 22:33N 49°06' W 123°18'6 6.2
2016-Feb-01 21:33N 49°01' W 123°14'8 8.4
2016-Feb-01 20:33N 48°55' W 123°04'9 8.7
2016-Feb-01 19:33N 48°49' W 122°54'9 9.1
2016-Feb-01 18:33N 48°43' W 122°44'9 9.5
2016-Feb-01 17:33N 48°34' W 122°45'34 8.3
2016-Feb-01 13:28N 48°00' W 122°36'8 8.8
2016-Feb-01 12:33N 47°54' W 122°28'8 7.6
2016-Feb-01 11:33N 47°58' W 122°18'3 3.1
2016-Feb-01 10:33N 47°59' W 122°14'9 9.4
2016-Feb-01 09:33N 47°51' W 122°23'1110.9
2016-Feb-01 08:33N 47°40' W 122°25'2 2.2
2016-Feb-01 07:33N 47°39' W 122°22'1 0.0
2016-Jan-31 02:33N 47°40' W 122°23'8 7.5
2016-Jan-31 01:33N 47°47' W 122°25'1110.9
2016-Jan-31 00:33N 47°57' W 122°19'4 3.8
2016-Jan-30 23:33N 47°59' W 122°13'4 3.8
2016-Jan-30 22:33N 47°57' W 122°18'6 6.3
2016-Jan-30 21:34N 47°53' W 122°25'6 5.7
2016-Jan-30 20:33N 47°56' W 122°32'5 4.9
2016-Jan-30 19:32N 47°59' W 122°37'12 5.2
2016-Jan-30 17:13N 48°10' W 122°46'11 6.5
2016-Jan-30 15:31N 48°21' W 122°46'6 5.9
2016-Jan-30 14:33N 48°27' W 122°45'5 5.2
2016-Jan-30 13:33N 48°32' W 122°45'6 5.8
2016-Jan-30 12:34N 48°38' W 122°45'6 6.2
2016-Jan-30 11:34N 48°44' W 122°46'7 7.1
2016-Jan-30 10:34N 48°48' W 122°55'7 7.3
2016-Jan-30 09:34N 48°52' W 123°04'7 7.5
2016-Jan-30 08:34N 48°57' W 123°12'7 7.1
2016-Jan-30 07:34N 49°03' W 123°19'6 5.9
2016-Jan-30 06:34N 49°08' W 123°15'7 6.6
2016-Jan-30 05:34N 49°07' W 123°05'2 2.3
2016-Jan-30 04:34N 49°09' W 123°02'0 0.0
2016-Jan-30 03:33N 49°09' W 123°02'0 0.0
2016-Jan-30 02:34N 49°09' W 123°02'0 0.0
2016-Jan-30 01:33N 49°09' W 123°02'0 0.0
2016-Jan-30 00:34N 49°09' W 123°02'0 0.0
2016-Jan-29 23:34N 49°09' W 123°02'0 0.0
2016-Jan-29 22:33N 49°09' W 123°02'0 0.0
2016-Jan-29 21:34N 49°09' W 123°02'0 0.0
2016-Jan-29 20:34N 49°09' W 123°02'0 0.0
2016-Jan-29 19:34N 49°09' W 123°02'0 0.0
2016-Jan-29 18:33N 49°09' W 123°02'0 0.0
2016-Jan-29 17:34N 49°09' W 123°02'0 0.0
2016-Jan-29 16:34N 49°09' W 123°02'0 0.0
2016-Jan-29 15:34N 49°09' W 123°02'0 0.0
2016-Jan-29 14:34N 49°09' W 123°02'0 0.0
2016-Jan-29 13:33N 49°09' W 123°02'0 0.0
2016-Jan-29 12:34N 49°09' W 123°02'0 0.0
2016-Jan-29 11:34N 49°09' W 123°02'5 5.3
2016-Jan-29 10:34N 49°07' W 123°09'5 5.0
2016-Jan-29 09:33N 49°07' W 123°17'3 3.4
2016-Jan-29 08:33N 49°03' W 123°18'9 8.7
2016-Jan-29 07:33N 48°57' W 123°09'8 8.5
2016-Jan-29 06:33N 48°52' W 122°59'9 8.6
2016-Jan-29 05:33N 48°46' W 122°49'8 8.3
2016-Jan-29 04:34N 48°39' W 122°43'9 9.2
2016-Jan-29 03:34N 48°30' W 122°44'32 7.8
2016-Jan-28 23:30N 47°59' W 122°35'8 9.0
2016-Jan-28 22:33N 47°52' W 122°27'10 9.8
2016-Jan-28 21:34N 47°42' W 122°27'9 8.5
2016-Jan-28 20:33N 47°34' W 122°21'  
Track history (hours):
 
Tides and Currents Weather Stations Pressure Air Temp Water Temp Dewpoint Dewpoint Depression Visibility Wind Speed Wind Dir Waves Ship Positions

Triumph

Owner: WESTERN TOWBOAT CO, SEATTLE, WA. More information available from US FCC via Universal Licensing System and Coast Guard Vessel Documentation Center.

Last reported at 2016-Feb-06 20:34 UTC. Time now 2016-Feb-06 20:45 UTC.
Position N 47°35' W 122°23'.

Length 24 m; draft 3 m.

Type: Tow > 200 m length. MMSI: 367103880.

Date/timePositionNaut miles runAvg speedWind from/ knotsBaromVisibWave heightAir tempDewpointWater temp
2016-Feb-06 20:34N 47°35' W 122°23'5 4.6
2016-Feb-06 19:34N 47°40' W 122°24'1 1.4
2016-Feb-06 18:33N 47°39' W 122°22'0 0.0
2016-Feb-06 17:34N 47°39' W 122°22'0 0.0
2016-Feb-06 16:33N 47°39' W 122°22'0 0.0
2016-Feb-06 15:33N 47°39' W 122°22'0 0.0
2016-Feb-06 14:34N 47°39' W 122°22'0 0.0
2016-Feb-06 13:34N 47°39' W 122°22'0 0.0
2016-Feb-06 12:34N 47°39' W 122°22'0 0.0
2016-Feb-06 11:34N 47°39' W 122°22'0 0.0
2016-Feb-06 10:34N 47°39' W 122°22'0 0.0
2016-Feb-06 09:33N 47°39' W 122°22'0 0.0
2016-Feb-06 08:33N 47°39' W 122°22'0 0.0
2016-Feb-06 07:34N 47°39' W 122°22'0 0.0
2016-Feb-06 06:34N 47°39' W 122°22'0 0.0
2016-Feb-06 05:33N 47°39' W 122°22'0 0.0
2016-Feb-06 04:33N 47°39' W 122°22'0 0.0
2016-Feb-06 03:33N 47°39' W 122°22'0 0.0
2016-Feb-06 02:34N 47°39' W 122°22'0 0.0
2016-Feb-06 01:33N 47°39' W 122°22'0 0.0
2016-Feb-06 00:34N 47°39' W 122°22'0 0.0
2016-Feb-05 23:34N 47°39' W 122°22'0 0.0
2016-Feb-05 22:34N 47°39' W 122°22'0 0.0
2016-Feb-05 21:34N 47°39' W 122°22'0 0.0
2016-Feb-05 20:34N 47°39' W 122°22'0 0.0
2016-Feb-05 19:33N 47°39' W 122°22'0 0.0
2016-Feb-05 18:34N 47°39' W 122°22'0 0.0
2016-Feb-05 17:34N 47°39' W 122°22'0 0.0
2016-Feb-05 16:34N 47°39' W 122°22'0 0.0
2016-Feb-05 15:34N 47°39' W 122°22'0 0.0
2016-Feb-05 14:34N 47°39' W 122°22'0 0.0
2016-Feb-05 13:33N 47°39' W 122°22'0 0.0
2016-Feb-05 12:34N 47°39' W 122°22'0 0.0
2016-Feb-05 11:34N 47°39' W 122°22'0 0.0
2016-Feb-05 10:33N 47°39' W 122°22'0 0.0
2016-Feb-05 09:34N 47°39' W 122°22'0 0.0
2016-Feb-05 08:34N 47°39' W 122°22'0 0.0
2016-Feb-05 07:33N 47°39' W 122°22'0 0.0
2016-Feb-05 06:34N 47°39' W 122°22'0 0.0
2016-Feb-05 05:34N 47°39' W 122°22'0 0.0
2016-Feb-05 04:33N 47°39' W 122°22'0 0.0
2016-Feb-05 03:34N 47°39' W 122°22'0 0.0
2016-Feb-05 02:33N 47°39' W 122°22'0 0.0
2016-Feb-05 01:34N 47°39' W 122°22'0 0.0
2016-Feb-05 00:34N 47°39' W 122°22'0 0.0
2016-Feb-04 23:33N 47°39' W 122°22'0 0.0
2016-Feb-04 22:33N 47°39' W 122°22'0 0.0
2016-Feb-04 21:33N 47°39' W 122°22'0 0.0
2016-Feb-04 20:33N 47°39' W 122°22'0 0.0
2016-Feb-04 19:34N 47°39' W 122°22'0 0.0
2016-Feb-04 18:34N 47°39' W 122°22'0 0.0
2016-Feb-04 17:34N 47°39' W 122°22'0 0.0
2016-Feb-04 16:34N 47°39' W 122°22'0 0.1
2016-Feb-04 15:33N 47°39' W 122°22'0 0.0
2016-Feb-04 14:33N 47°39' W 122°22'0 0.0
2016-Feb-04 13:33N 47°39' W 122°22'0 0.0
2016-Feb-04 12:34N 47°39' W 122°22'0 0.0
2016-Feb-04 11:33N 47°39' W 122°22'0 0.0
2016-Feb-04 10:33N 47°39' W 122°22'0 0.0
2016-Feb-04 09:33N 47°39' W 122°22'0 0.0
2016-Feb-04 08:34N 47°39' W 122°22'0 0.0
2016-Feb-04 07:34N 47°39' W 122°22'0 0.0
2016-Feb-04 06:33N 47°39' W 122°22'0 0.0
2016-Feb-04 05:33N 47°39' W 122°22'0 0.0
2016-Feb-04 04:34N 47°39' W 122°22'0 0.0
2016-Feb-04 03:34N 47°39' W 122°22'0 0.0
2016-Feb-04 02:33N 47°39' W 122°22'0 0.0
2016-Feb-04 01:34N 47°39' W 122°22'0 0.0
2016-Feb-04 00:34N 47°39' W 122°22'0 0.0
2016-Feb-03 23:33N 47°39' W 122°22'0 0.0
2016-Feb-03 22:33N 47°39' W 122°22'0 0.0
2016-Feb-03 21:34N 47°39' W 122°22'0 0.1
2016-Feb-03 20:33N 47°39' W 122°22'0 0.0
2016-Feb-03 19:34N 47°39' W 122°22'0 0.0
2016-Feb-03 12:03N 47°39' W 122°22'1 2.9
2016-Feb-03 11:34N 47°40' W 122°24'7 7.0
2016-Feb-03 10:33N 47°33' W 122°21'2 2.5
2016-Feb-03 09:33N 47°36' W 122°22'6 6.4
2016-Feb-03 08:33N 47°40' W 122°28'7 7.3
2016-Feb-03 07:33N 47°48' W 122°28'8 7.6
2016-Feb-03 06:33N 47°55' W 122°30'8 7.7
2016-Feb-03 05:33N 48°01' W 122°38'17 7.2
2016-Feb-03 03:14N 48°16' W 122°48'5 7.4
2016-Feb-03 02:32N 48°21' W 122°46'8 8.4
2016-Feb-03 01:33N 48°29' W 122°45'9 9.2
2016-Feb-03 00:33N 48°38' W 122°44'8 7.6
2016-Feb-02 23:33N 48°45' W 122°48'8 7.6
2016-Feb-02 22:33N 48°50' W 122°58'7 7.5
2016-Feb-02 21:33N 48°54' W 123°07'7 7.4
2016-Feb-02 20:33N 48°59' W 123°16'7 6.6
2016-Feb-02 19:33N 49°05' W 123°20'5 5.3
2016-Feb-02 18:33N 49°08' W 123°13'5 5.5
2016-Feb-02 17:33N 49°07' W 123°04'2 2.2
2016-Feb-02 16:33N 49°09' W 123°02'0 0.0
2016-Feb-02 15:33N 49°09' W 123°02'0 0.0
2016-Feb-02 14:33N 49°09' W 123°02'0 0.0
2016-Feb-02 13:33N 49°09' W 123°02'0 0.0
2016-Feb-02 12:33N 49°09' W 123°02'0 0.0
2016-Feb-02 11:33N 49°09' W 123°02'0 0.0
2016-Feb-02 10:33N 49°09' W 123°02'0 0.0
2016-Feb-02 09:33N 49°09' W 123°02'0 0.0
2016-Feb-02 08:33N 49°09' W 123°02'0 0.0
2016-Feb-02 07:33N 49°09' W 123°02'0 0.0
2016-Feb-02 06:33N 49°09' W 123°02'0 0.0
2016-Feb-02 05:33N 49°09' W 123°02'0 0.0
2016-Feb-02 04:33N 49°09' W 123°02'0 0.0
2016-Feb-02 03:33N 49°09' W 123°02'0 0.0
2016-Feb-02 02:33N 49°09' W 123°02'0 0.0
2016-Feb-02 01:33N 49°09' W 123°02'2 1.8
2016-Feb-02 00:33N 49°08' W 123°04'4 4.4
2016-Feb-01 23:33N 49°07' W 123°10'5 5.0
2016-Feb-01 22:33N 49°06' W 123°18'6 6.2
2016-Feb-01 21:33N 49°01' W 123°14'8 8.4
2016-Feb-01 20:33N 48°55' W 123°04'9 8.7
2016-Feb-01 19:33N 48°49' W 122°54'9 9.1
2016-Feb-01 18:33N 48°43' W 122°44'9 9.5
2016-Feb-01 17:33N 48°34' W 122°45'34 8.3
2016-Feb-01 13:28N 48°00' W 122°36'8 8.8
2016-Feb-01 12:33N 47°54' W 122°28'8 7.6
2016-Feb-01 11:33N 47°58' W 122°18'3 3.1
2016-Feb-01 10:33N 47°59' W 122°14'9 9.4
2016-Feb-01 09:33N 47°51' W 122°23'1110.9
2016-Feb-01 08:33N 47°40' W 122°25'2 2.2
2016-Feb-01 07:33N 47°39' W 122°22'1 0.0
2016-Jan-31 02:33N 47°40' W 122°23'8 7.5
2016-Jan-31 01:33N 47°47' W 122°25'1110.9
2016-Jan-31 00:33N 47°57' W 122°19'4 3.8
2016-Jan-30 23:33N 47°59' W 122°13'4 3.8
2016-Jan-30 22:33N 47°57' W 122°18'6 6.3
2016-Jan-30 21:34N 47°53' W 122°25'6 5.7
2016-Jan-30 20:33N 47°56' W 122°32'5 4.9
2016-Jan-30 19:32N 47°59' W 122°37'12 5.2
2016-Jan-30 17:13N 48°10' W 122°46'11 6.5
2016-Jan-30 15:31N 48°21' W 122°46'6 5.9
2016-Jan-30 14:33N 48°27' W 122°45'5 5.2
2016-Jan-30 13:33N 48°32' W 122°45'6 5.8
2016-Jan-30 12:34N 48°38' W 122°45'6 6.2
2016-Jan-30 11:34N 48°44' W 122°46'7 7.1
2016-Jan-30 10:34N 48°48' W 122°55'7 7.3
2016-Jan-30 09:34N 48°52' W 123°04'7 7.5
2016-Jan-30 08:34N 48°57' W 123°12'7 7.1
2016-Jan-30 07:34N 49°03' W 123°19'6 5.9
2016-Jan-30 06:34N 49°08' W 123°15'7 6.6
2016-Jan-30 05:34N 49°07' W 123°05'2 2.3
2016-Jan-30 04:34N 49°09' W 123°02'0 0.0
2016-Jan-30 03:33N 49°09' W 123°02'0 0.0
2016-Jan-30 02:34N 49°09' W 123°02'0 0.0
2016-Jan-30 01:33N 49°09' W 123°02'0 0.0
2016-Jan-30 00:34N 49°09' W 123°02'0 0.0
2016-Jan-29 23:34N 49°09' W 123°02'0 0.0
2016-Jan-29 22:33N 49°09' W 123°02'0 0.0
2016-Jan-29 21:34N 49°09' W 123°02'0 0.0
2016-Jan-29 20:34N 49°09' W 123°02'0 0.0
2016-Jan-29 19:34N 49°09' W 123°02'0 0.0
2016-Jan-29 18:33N 49°09' W 123°02'0 0.0
2016-Jan-29 17:34N 49°09' W 123°02'0 0.0
2016-Jan-29 16:34N 49°09' W 123°02'0 0.0
2016-Jan-29 15:34N 49°09' W 123°02'0 0.0
2016-Jan-29 14:34N 49°09' W 123°02'0 0.0
2016-Jan-29 13:33N 49°09' W 123°02'0 0.0
2016-Jan-29 12:34N 49°09' W 123°02'0 0.0
2016-Jan-29 11:34N 49°09' W 123°02'5 5.3
2016-Jan-29 10:34N 49°07' W 123°09'5 5.0
2016-Jan-29 09:33N 49°07' W 123°17'3 3.4
2016-Jan-29 08:33N 49°03' W 123°18'9 8.7
2016-Jan-29 07:33N 48°57' W 123°09'8 8.5
2016-Jan-29 06:33N 48°52' W 122°59'9 8.6
2016-Jan-29 05:33N 48°46' W 122°49'8 8.3
2016-Jan-29 04:34N 48°39' W 122°43'9 9.2
2016-Jan-29 03:34N 48°30' W 122°44'32 7.8
2016-Jan-28 23:30N 47°59' W 122°35'8 9.0
2016-Jan-28 22:33N 47°52' W 122°27'10 9.8
2016-Jan-28 21:34N 47°42' W 122°27'9 8.5
2016-Jan-28 20:33N 47°34' W 122°21'  

Dump ship's entire track history